sensor_id;sensor_type;location;lat;lon;timestamp;P1;durP1;ratioP1;P2;durP2;ratioP2
9418;SDS011;4748;50.802;7.132;2022-09-25T03:30:39;19.43;;;9.50;;
9418;SDS011;4748;50.802;7.132;2022-09-25T03:33:06;26.53;;;11.13;;
9418;SDS011;4748;50.802;7.132;2022-09-25T03:35:34;15.17;;;8.90;;
9418;SDS011;4748;50.802;7.132;2022-09-25T03:37:59;20.30;;;10.00;;
9418;SDS011;4748;50.802;7.132;2022-09-25T03:40:24;16.33;;;9.70;;
9418;SDS011;4748;50.802;7.132;2022-09-25T03:42:50;19.03;;;10.07;;
9418;SDS011;4748;50.802;7.132;2022-09-25T03:45:15;20.23;;;9.23;;
9418;SDS011;4748;50.802;7.132;2022-09-25T03:47:40;16.97;;;10.70;;
9418;SDS011;4748;50.802;7.132;2022-09-25T03:50:06;18.37;;;8.57;;
9418;SDS011;4748;50.802;7.132;2022-09-25T03:52:33;19.30;;;9.90;;
9418;SDS011;4748;50.802;7.132;2022-09-25T03:54:58;21.27;;;9.87;;
9418;SDS011;4748;50.802;7.132;2022-09-25T03:57:24;22.57;;;10.87;;
9418;SDS011;4748;50.802;7.132;2022-09-25T03:59:50;22.47;;;10.87;;
9418;SDS011;4748;50.802;7.132;2022-09-25T04:02:15;19.37;;;9.80;;
9418;SDS011;4748;50.802;7.132;2022-09-25T04:04:41;14.07;;;9.23;;
9418;SDS011;4748;50.802;7.132;2022-09-25T04:07:06;18.77;;;9.50;;
9418;SDS011;4748;50.802;7.132;2022-09-25T04:09:32;16.63;;;9.03;;
9418;SDS011;4748;50.802;7.132;2022-09-25T04:11:58;18.33;;;9.17;;
9418;SDS011;4748;50.802;7.132;2022-09-25T04:14:23;17.53;;;9.17;;
9418;SDS011;4748;50.802;7.132;2022-09-25T04:16:49;13.27;;;7.60;;
9418;SDS011;4748;50.802;7.132;2022-09-25T04:19:15;14.40;;;7.90;;
9418;SDS011;4748;50.802;7.132;2022-09-25T04:21:41;13.47;;;7.13;;
9418;SDS011;4748;50.802;7.132;2022-09-25T04:24:07;13.10;;;7.47;;
9418;SDS011;4748;50.802;7.132;2022-09-25T04:26:50;12.73;;;6.57;;
9418;SDS011;4748;50.802;7.132;2022-09-25T04:29:17;15.07;;;7.77;;
9418;SDS011;4748;50.802;7.132;2022-09-25T04:31:43;10.70;;;6.53;;
9418;SDS011;4748;50.802;7.132;2022-09-25T04:34:28;10.27;;;6.47;;
9418;SDS011;4748;50.802;7.132;2022-09-25T04:36:54;6.23;;;5.10;;
9418;SDS011;4748;50.802;7.132;2022-09-25T04:39:19;9.87;;;5.03;;
9418;SDS011;4748;50.802;7.132;2022-09-25T04:41:44;10.83;;;6.87;;
9418;SDS011;4748;50.802;7.132;2022-09-25T04:44:10;9.00;;;5.13;;
9418;SDS011;4748;50.802;7.132;2022-09-25T04:46:36;7.00;;;5.33;;
9418;SDS011;4748;50.802;7.132;2022-09-25T04:49:01;9.73;;;5.53;;
9418;SDS011;4748;50.802;7.132;2022-09-25T04:51:27;7.53;;;4.53;;
9418;SDS011;4748;50.802;7.132;2022-09-25T04:53:52;10.90;;;5.80;;
9418;SDS011;4748;50.802;7.132;2022-09-25T04:56:18;8.13;;;4.83;;
9418;SDS011;4748;50.802;7.132;2022-09-25T04:58:44;7.73;;;4.60;;
9418;SDS011;4748;50.802;7.132;2022-09-25T05:01:10;13.17;;;4.60;;
9418;SDS011;4748;50.802;7.132;2022-09-25T05:03:36;7.13;;;4.60;;
9418;SDS011;4748;50.802;7.132;2022-09-25T05:06:01;16.57;;;5.53;;
9418;SDS011;4748;50.802;7.132;2022-09-25T05:08:27;9.37;;;5.20;;
9418;SDS011;4748;50.802;7.132;2022-09-25T05:10:52;15.57;;;5.90;;
9418;SDS011;4748;50.802;7.132;2022-09-25T05:13:18;5.67;;;4.83;;
9418;SDS011;4748;50.802;7.132;2022-09-25T05:15:43;14.90;;;5.33;;
9418;SDS011;4748;50.802;7.132;2022-09-25T05:18:14;7.47;;;5.13;;
9418;SDS011;4748;50.802;7.132;2022-09-25T05:20:41;7.43;;;4.27;;
9418;SDS011;4748;50.802;7.132;2022-09-25T05:23:07;9.80;;;4.33;;
9418;SDS011;4748;50.802;7.132;2022-09-25T05:25:32;7.10;;;4.83;;
9418;SDS011;4748;50.802;7.132;2022-09-25T05:27:58;5.93;;;3.97;;
9418;SDS011;4748;50.802;7.132;2022-09-25T05:30:25;7.50;;;4.40;;
9418;SDS011;4748;50.802;7.132;2022-09-25T05:32:52;7.80;;;3.10;;
9418;SDS011;4748;50.802;7.132;2022-09-25T05:35:18;5.93;;;3.27;;
9418;SDS011;4748;50.802;7.132;2022-09-25T05:37:45;3.90;;;2.93;;
9418;SDS011;4748;50.802;7.132;2022-09-25T05:40:10;9.03;;;4.27;;
9418;SDS011;4748;50.802;7.132;2022-09-25T05:42:36;8.60;;;4.10;;
9418;SDS011;4748;50.802;7.132;2022-09-25T05:45:02;16.67;;;3.97;;
9418;SDS011;4748;50.802;7.132;2022-09-25T05:47:28;9.03;;;3.07;;
9418;SDS011;4748;50.802;7.132;2022-09-25T05:49:53;5.57;;;3.07;;
9418;SDS011;4748;50.802;7.132;2022-09-25T05:52:19;2.43;;;2.23;;
9418;SDS011;4748;50.802;7.132;2022-09-25T05:54:44;2.90;;;2.43;;
9418;SDS011;4748;50.802;7.132;2022-09-25T05:57:10;2.90;;;2.50;;
9418;SDS011;4748;50.802;7.132;2022-09-25T05:59:36;7.30;;;3.90;;
9418;SDS011;4748;50.802;7.132;2022-09-25T06:02:01;8.43;;;2.67;;
9418;SDS011;4748;50.802;7.132;2022-09-25T06:04:26;5.30;;;3.07;;
9418;SDS011;4748;50.802;7.132;2022-09-25T06:06:52;2.90;;;2.53;;
9418;SDS011;4748;50.802;7.132;2022-09-25T06:09:17;4.70;;;2.50;;
9418;SDS011;4748;50.802;7.132;2022-09-25T06:11:43;7.43;;;2.43;;
9418;SDS011;4748;50.802;7.132;2022-09-25T06:14:12;3.57;;;3.13;;
9418;SDS011;4748;50.802;7.132;2022-09-25T06:16:37;6.57;;;3.23;;
9418;SDS011;4748;50.802;7.132;2022-09-25T06:19:03;7.87;;;2.10;;
9418;SDS011;4748;50.802;7.132;2022-09-25T06:21:28;8.67;;;2.80;;
9418;SDS011;4748;50.802;7.132;2022-09-25T06:23:54;3.20;;;2.47;;
9418;SDS011;4748;50.802;7.132;2022-09-25T06:26:19;5.60;;;2.83;;
9418;SDS011;4748;50.802;7.132;2022-09-25T06:28:45;14.17;;;2.63;;
9418;SDS011;4748;50.802;7.132;2022-09-25T06:31:10;3.07;;;2.77;;
9418;SDS011;4748;50.802;7.132;2022-09-25T06:33:36;9.20;;;1.53;;
9418;SDS011;4748;50.802;7.132;2022-09-25T06:36:03;8.30;;;2.90;;
9418;SDS011;4748;50.802;7.132;2022-09-25T06:38:29;7.17;;;3.20;;
9418;SDS011;4748;50.802;7.132;2022-09-25T06:40:57;1.93;;;1.83;;
9418;SDS011;4748;50.802;7.132;2022-09-25T06:43:23;6.87;;;2.47;;
9418;SDS011;4748;50.802;7.132;2022-09-25T06:45:48;2.50;;;2.30;;
9418;SDS011;4748;50.802;7.132;2022-09-25T06:48:15;2.20;;;2.00;;
9418;SDS011;4748;50.802;7.132;2022-09-25T06:50:42;5.40;;;2.03;;
9418;SDS011;4748;50.802;7.132;2022-09-25T06:53:16;4.83;;;1.90;;
9418;SDS011;4748;50.802;7.132;2022-09-25T06:55:42;8.07;;;1.63;;
9418;SDS011;4748;50.802;7.132;2022-09-25T06:58:09;10.90;;;1.33;;
9418;SDS011;4748;50.802;7.132;2022-09-25T07:00:37;5.60;;;1.23;;
9418;SDS011;4748;50.802;7.132;2022-09-25T07:03:02;6.07;;;1.27;;
9418;SDS011;4748;50.802;7.132;2022-09-25T07:05:46;2.53;;;1.30;;
9418;SDS011;4748;50.802;7.132;2022-09-25T07:08:13;7.83;;;1.40;;
9418;SDS011;4748;50.802;7.132;2022-09-25T07:10:50;7.10;;;1.03;;
9418;SDS011;4748;50.802;7.132;2022-09-25T07:13:17;3.03;;;1.53;;
9418;SDS011;4748;50.802;7.132;2022-09-25T07:15:51;4.93;;;0.77;;
9418;SDS011;4748;50.802;7.132;2022-09-25T07:18:17;2.17;;;0.60;;
9418;SDS011;4748;50.802;7.132;2022-09-25T07:20:43;1.40;;;0.77;;
9418;SDS011;4748;50.802;7.132;2022-09-25T07:23:11;3.83;;;1.10;;
9418;SDS011;4748;50.802;7.132;2022-09-25T07:25:41;3.10;;;0.93;;
9418;SDS011;4748;50.802;7.132;2022-09-25T07:28:07;3.40;;;0.80;;
9418;SDS011;4748;50.802;7.132;2022-09-25T07:30:33;3.70;;;1.33;;
9418;SDS011;4748;50.802;7.132;2022-09-25T07:32:58;1.23;;;0.60;;
9418;SDS011;4748;50.802;7.132;2022-09-25T07:35:24;5.40;;;0.40;;
9418;SDS011;4748;50.802;7.132;2022-09-25T07:37:51;5.20;;;0.83;;
9418;SDS011;4748;50.802;7.132;2022-09-25T07:40:19;0.40;;;0.40;;
9418;SDS011;4748;50.802;7.132;2022-09-25T07:42:44;1.53;;;0.70;;
9418;SDS011;4748;50.802;7.132;2022-09-25T07:45:10;1.40;;;0.43;;
9418;SDS011;4748;50.802;7.132;2022-09-25T07:47:35;0.40;;;0.40;;
9418;SDS011;4748;50.802;7.132;2022-09-25T07:50:01;6.10;;;0.60;;
9418;SDS011;4748;50.802;7.132;2022-09-25T07:52:26;3.43;;;1.10;;
9418;SDS011;4748;50.802;7.132;2022-09-25T07:54:51;3.33;;;0.80;;
9418;SDS011;4748;50.802;7.132;2022-09-25T07:57:17;0.50;;;0.50;;
9418;SDS011;4748;50.802;7.132;2022-09-25T07:59:44;6.07;;;0.80;;
9418;SDS011;4748;50.802;7.132;2022-09-25T08:02:12;4.50;;;1.07;;
9418;SDS011;4748;50.802;7.132;2022-09-25T08:04:38;1.50;;;0.37;;
9418;SDS011;4748;50.802;7.132;2022-09-25T08:07:03;0.60;;;0.30;;
9418;SDS011;4748;50.802;7.132;2022-09-25T08:09:29;1.90;;;1.10;;
9418;SDS011;4748;50.802;7.132;2022-09-25T08:11:54;2.10;;;0.67;;
9418;SDS011;4748;50.802;7.132;2022-09-25T08:14:19;0.57;;;0.57;;
9418;SDS011;4748;50.802;7.132;2022-09-25T08:16:47;0.73;;;0.73;;
9418;SDS011;4748;50.802;7.132;2022-09-25T08:19:12;0.80;;;0.80;;
9418;SDS011;4748;50.802;7.132;2022-09-25T08:21:41;4.43;;;0.63;;
9418;SDS011;4748;50.802;7.132;2022-09-25T08:24:08;2.53;;;0.60;;
9418;SDS011;4748;50.802;7.132;2022-09-25T08:26:34;4.53;;;0.63;;
9418;SDS011;4748;50.802;7.132;2022-09-25T08:29:00;1.87;;;0.93;;
9418;SDS011;4748;50.802;7.132;2022-09-25T08:31:26;2.53;;;0.83;;
9418;SDS011;4748;50.802;7.132;2022-09-25T08:33:51;0.57;;;0.53;;
9418;SDS011;4748;50.802;7.132;2022-09-25T08:36:18;9.90;;;0.80;;
9418;SDS011;4748;50.802;7.132;2022-09-25T08:38:43;4.67;;;0.70;;
9418;SDS011;4748;50.802;7.132;2022-09-25T08:41:22;1.07;;;0.70;;
9418;SDS011;4748;50.802;7.132;2022-09-25T08:43:55;1.50;;;0.53;;
9418;SDS011;4748;50.802;7.132;2022-09-25T08:46:31;2.53;;;0.63;;
9418;SDS011;4748;50.802;7.132;2022-09-25T08:49:43;6.37;;;1.10;;
9418;SDS011;4748;50.802;7.132;2022-09-25T08:52:14;3.83;;;1.33;;
9418;SDS011;4748;50.802;7.132;2022-09-25T08:54:42;3.40;;;0.70;;
9418;SDS011;4748;50.802;7.132;2022-09-25T08:59:57;6.10;;;1.03;;
9418;SDS011;4748;50.802;7.132;2022-09-25T09:02:30;5.23;;;1.30;;
9418;SDS011;4748;50.802;7.132;2022-09-25T09:05:02;8.30;;;1.10;;
9418;SDS011;4748;50.802;7.132;2022-09-25T09:07:35;3.87;;;0.70;;
9418;SDS011;4748;50.802;7.132;2022-09-25T09:18:53;2.63;;;0.57;;
9418;SDS011;4748;50.802;7.132;2022-09-25T09:21:24;2.60;;;0.60;;
9418;SDS011;4748;50.802;7.132;2022-09-25T09:24:13;0.57;;;0.57;;
9418;SDS011;4748;50.802;7.132;2022-09-25T09:35:16;3.50;;;1.00;;
9418;SDS011;4748;50.802;7.132;2022-09-25T09:37:57;4.53;;;0.50;;
9418;SDS011;4748;50.802;7.132;2022-09-25T09:43:25;2.20;;;0.63;;
9418;SDS011;4748;50.802;7.132;2022-09-25T09:49:20;2.00;;;0.40;;
9418;SDS011;4748;50.802;7.132;2022-09-25T09:54:31;4.03;;;0.73;;
9418;SDS011;4748;50.802;7.132;2022-09-25T09:57:04;5.33;;;0.70;;
9418;SDS011;4748;50.802;7.132;2022-09-25T09:59:45;2.03;;;0.43;;
9418;SDS011;4748;50.802;7.132;2022-09-25T10:02:37;0.73;;;0.20;;
9418;SDS011;4748;50.802;7.132;2022-09-25T10:05:10;1.47;;;0.30;;
9418;SDS011;4748;50.802;7.132;2022-09-25T10:08:00;2.83;;;0.40;;
9418;SDS011;4748;50.802;7.132;2022-09-25T10:10:33;3.63;;;0.80;;
9418;SDS011;4748;50.802;7.132;2022-09-25T10:13:01;2.57;;;0.53;;
9418;SDS011;4748;50.802;7.132;2022-09-25T10:15:35;2.37;;;0.30;;
9418;SDS011;4748;50.802;7.132;2022-09-25T10:18:06;1.13;;;0.30;;
9418;SDS011;4748;50.802;7.132;2022-09-25T10:20:47;1.50;;;0.50;;
9418;SDS011;4748;50.802;7.132;2022-09-25T10:26:04;0.33;;;0.20;;
9418;SDS011;4748;50.802;7.132;2022-09-25T10:28:46;2.17;;;0.43;;
9418;SDS011;4748;50.802;7.132;2022-09-25T10:31:11;0.20;;;0.20;;
9418;SDS011;4748;50.802;7.132;2022-09-25T10:33:41;0.40;;;0.30;;
9418;SDS011;4748;50.802;7.132;2022-09-25T10:36:06;5.93;;;0.40;;
9418;SDS011;4748;50.802;7.132;2022-09-25T10:38:44;7.37;;;0.57;;
9418;SDS011;4748;50.802;7.132;2022-09-25T10:41:14;3.00;;;0.30;;
9418;SDS011;4748;50.802;7.132;2022-09-25T10:46:24;3.00;;;0.47;;
9418;SDS011;4748;50.802;7.132;2022-09-25T10:49:13;2.23;;;0.30;;
9418;SDS011;4748;50.802;7.132;2022-09-25T10:52:03;1.37;;;0.53;;
9418;SDS011;4748;50.802;7.132;2022-09-25T10:54:31;1.83;;;0.20;;
9418;SDS011;4748;50.802;7.132;2022-09-25T10:56:57;1.33;;;0.27;;
9418;SDS011;4748;50.802;7.132;2022-09-25T10:59:23;0.40;;;0.23;;
9418;SDS011;4748;50.802;7.132;2022-09-25T11:01:49;0.27;;;0.27;;
9418;SDS011;4748;50.802;7.132;2022-09-25T11:06:47;1.13;;;0.50;;
9418;SDS011;4748;50.802;7.132;2022-09-25T11:09:19;6.33;;;0.23;;
9418;SDS011;4748;50.802;7.132;2022-09-25T11:11:46;3.30;;;0.20;;
9418;SDS011;4748;50.802;7.132;2022-09-25T11:14:54;5.43;;;0.30;;
9418;SDS011;4748;50.802;7.132;2022-09-25T11:17:27;2.37;;;0.53;;
9418;SDS011;4748;50.802;7.132;2022-09-25T11:22:44;2.87;;;0.20;;
9418;SDS011;4748;50.802;7.132;2022-09-25T11:25:31;2.63;;;0.10;;
9418;SDS011;4748;50.802;7.132;2022-09-25T11:28:11;4.20;;;0.70;;
9418;SDS011;4748;50.802;7.132;2022-09-25T11:30:46;0.50;;;0.20;;
9418;SDS011;4748;50.802;7.132;2022-09-25T11:36:30;3.17;;;0.40;;
9418;SDS011;4748;50.802;7.132;2022-09-25T11:39:01;2.33;;;0.40;;
9418;SDS011;4748;50.802;7.132;2022-09-25T11:42:08;3.90;;;0.40;;
9418;SDS011;4748;50.802;7.132;2022-09-25T11:47:12;0.10;;;0.10;;
9418;SDS011;4748;50.802;7.132;2022-09-25T11:49:42;0.93;;;0.20;;
9418;SDS011;4748;50.802;7.132;2022-09-25T11:52:19;2.87;;;0.27;;
9418;SDS011;4748;50.802;7.132;2022-09-25T11:55:47;0.10;;;0.10;;
9418;SDS011;4748;50.802;7.132;2022-09-25T12:01:06;1.33;;;0.10;;
9418;SDS011;4748;50.802;7.132;2022-09-25T12:03:38;1.23;;;0.10;;
9418;SDS011;4748;50.802;7.132;2022-09-25T12:11:50;0.70;;;0.37;;
9418;SDS011;4748;50.802;7.132;2022-09-25T12:20:16;0.23;;;0.23;;
9418;SDS011;4748;50.802;7.132;2022-09-25T12:31:09;1.30;;;0.20;;
9418;SDS011;4748;50.802;7.132;2022-09-25T12:36:25;0.20;;;0.20;;
9418;SDS011;4748;50.802;7.132;2022-09-25T12:39:22;0.50;;;0.30;;
9418;SDS011;4748;50.802;7.132;2022-09-25T12:42:10;2.50;;;0.37;;
9418;SDS011;4748;50.802;7.132;2022-09-25T12:50:09;1.07;;;0.30;;
9418;SDS011;4748;50.802;7.132;2022-09-25T12:52:50;1.17;;;0.20;;
9418;SDS011;4748;50.802;7.132;2022-09-25T12:55:25;3.53;;;0.17;;
9418;SDS011;4748;50.802;7.132;2022-09-25T13:00:28;2.47;;;0.20;;
9418;SDS011;4748;50.802;7.132;2022-09-25T13:03:17;0.23;;;0.23;;
9418;SDS011;4748;50.802;7.132;2022-09-25T13:08:42;2.73;;;0.50;;
9418;SDS011;4748;50.802;7.132;2022-09-25T13:11:18;1.70;;;0.30;;
9418;SDS011;4748;50.802;7.132;2022-09-25T13:13:51;2.00;;;0.63;;
9418;SDS011;4748;50.802;7.132;2022-09-25T13:16:19;1.80;;;0.10;;
9418;SDS011;4748;50.802;7.132;2022-09-25T13:19:31;1.17;;;0.10;;
9418;SDS011;4748;50.802;7.132;2022-09-25T13:21:35;0.10;;;0.10;;
9418;SDS011;4748;50.802;7.132;2022-09-25T13:24:06;2.70;;;0.20;;
9418;SDS011;4748;50.802;7.132;2022-09-25T13:26:42;2.83;;;0.10;;
9418;SDS011;4748;50.802;7.132;2022-09-25T13:32:06;0.17;;;0.17;;
9418;SDS011;4748;50.802;7.132;2022-09-25T13:34:39;5.77;;;0.20;;
9418;SDS011;4748;50.802;7.132;2022-09-25T13:37:06;0.20;;;0.13;;
9418;SDS011;4748;50.802;7.132;2022-09-25T13:39:35;0.10;;;0.10;;
9418;SDS011;4748;50.802;7.132;2022-09-25T13:47:54;0.67;;;0.20;;
9418;SDS011;4748;50.802;7.132;2022-09-25T13:50:23;0.10;;;0.10;;
9418;SDS011;4748;50.802;7.132;2022-09-25T13:53:12;0.77;;;0.27;;
9418;SDS011;4748;50.802;7.132;2022-09-25T14:03:39;0.33;;;0.10;;
9418;SDS011;4748;50.802;7.132;2022-09-25T14:06:23;0.20;;;0.20;;
9418;SDS011;4748;50.802;7.132;2022-09-25T14:08:53;2.30;;;0.50;;
9418;SDS011;4748;50.802;7.132;2022-09-25T14:11:28;0.30;;;0.17;;
9418;SDS011;4748;50.802;7.132;2022-09-25T14:13:57;5.40;;;0.30;;
9418;SDS011;4748;50.802;7.132;2022-09-25T14:19:18;0.90;;;0.20;;
9418;SDS011;4748;50.802;7.132;2022-09-25T14:21:49;0.30;;;0.00;;
9418;SDS011;4748;50.802;7.132;2022-09-25T14:24:19;0.80;;;0.30;;
9418;SDS011;4748;50.802;7.132;2022-09-25T14:26:47;0.40;;;0.20;;
9418;SDS011;4748;50.802;7.132;2022-09-25T14:29:17;0.33;;;0.30;;
9418;SDS011;4748;50.802;7.132;2022-09-25T14:42:37;0.20;;;0.20;;
9418;SDS011;4748;50.802;7.132;2022-09-25T14:48:13;2.50;;;0.40;;
9418;SDS011;4748;50.802;7.132;2022-09-25T14:50:44;0.30;;;0.30;;
9418;SDS011;4748;50.802;7.132;2022-09-25T14:53:32;0.40;;;0.37;;
9418;SDS011;4748;50.802;7.132;2022-09-25T14:56:01;0.20;;;0.20;;
9418;SDS011;4748;50.802;7.132;2022-09-25T14:58:33;3.30;;;0.50;;
9418;SDS011;4748;50.802;7.132;2022-09-25T15:01:12;0.73;;;0.20;;
9418;SDS011;4748;50.802;7.132;2022-09-25T15:03:47;1.10;;;0.30;;
9418;SDS011;4748;50.802;7.132;2022-09-25T15:06:23;1.87;;;0.47;;
9418;SDS011;4748;50.802;7.132;2022-09-25T15:08:51;0.87;;;0.60;;
9418;SDS011;4748;50.802;7.132;2022-09-25T15:11:17;0.23;;;0.23;;
9418;SDS011;4748;50.802;7.132;2022-09-25T15:13:44;1.37;;;0.30;;
9418;SDS011;4748;50.802;7.132;2022-09-25T15:19:00;1.17;;;0.33;;
9418;SDS011;4748;50.802;7.132;2022-09-25T15:21:30;1.20;;;0.50;;
9418;SDS011;4748;50.802;7.132;2022-09-25T15:24:02;0.50;;;0.50;;
9418;SDS011;4748;50.802;7.132;2022-09-25T15:26:31;1.40;;;0.53;;
9418;SDS011;4748;50.802;7.132;2022-09-25T15:28:57;0.30;;;0.30;;
9418;SDS011;4748;50.802;7.132;2022-09-25T15:31:23;4.33;;;0.40;;
9418;SDS011;4748;50.802;7.132;2022-09-25T15:34:03;0.93;;;0.60;;
9418;SDS011;4748;50.802;7.132;2022-09-25T15:36:35;0.73;;;0.13;;
9418;SDS011;4748;50.802;7.132;2022-09-25T15:39:02;0.53;;;0.30;;
9418;SDS011;4748;50.802;7.132;2022-09-25T15:41:40;2.33;;;0.20;;
9418;SDS011;4748;50.802;7.132;2022-09-25T15:44:17;0.20;;;0.20;;
9418;SDS011;4748;50.802;7.132;2022-09-25T15:46:50;0.20;;;0.20;;
9418;SDS011;4748;50.802;7.132;2022-09-25T15:50:00;0.20;;;0.20;;
9418;SDS011;4748;50.802;7.132;2022-09-25T15:52:24;0.40;;;0.20;;
9418;SDS011;4748;50.802;7.132;2022-09-25T15:54:58;0.20;;;0.20;;
9418;SDS011;4748;50.802;7.132;2022-09-25T15:57:27;0.20;;;0.20;;
9418;SDS011;4748;50.802;7.132;2022-09-25T15:59:54;0.60;;;0.20;;
9418;SDS011;4748;50.802;7.132;2022-09-25T16:02:47;4.90;;;0.20;;
9418;SDS011;4748;50.802;7.132;2022-09-25T16:05:36;0.53;;;0.40;;
9418;SDS011;4748;50.802;7.132;2022-09-25T16:08:14;0.87;;;0.30;;
9418;SDS011;4748;50.802;7.132;2022-09-25T16:10:41;0.87;;;0.30;;
9418;SDS011;4748;50.802;7.132;2022-09-25T16:13:20;0.83;;;0.30;;
9418;SDS011;4748;50.802;7.132;2022-09-25T16:15:49;0.10;;;0.10;;
9418;SDS011;4748;50.802;7.132;2022-09-25T16:23:38;1.87;;;0.40;;
9418;SDS011;4748;50.802;7.132;2022-09-25T16:26:16;0.27;;;0.27;;
9418;SDS011;4748;50.802;7.132;2022-09-25T16:29:05;1.27;;;0.60;;
9418;SDS011;4748;50.802;7.132;2022-09-25T16:31:42;0.60;;;0.30;;
9418;SDS011;4748;50.802;7.132;2022-09-25T16:34:47;1.10;;;0.40;;
9418;SDS011;4748;50.802;7.132;2022-09-25T16:37:02;1.37;;;0.10;;
9418;SDS011;4748;50.802;7.132;2022-09-25T16:39:36;1.43;;;0.40;;
9418;SDS011;4748;50.802;7.132;2022-09-25T16:45:02;0.57;;;0.33;;
9418;SDS011;4748;50.802;7.132;2022-09-25T16:47:38;0.30;;;0.30;;
9418;SDS011;4748;50.802;7.132;2022-09-25T16:50:05;0.20;;;0.20;;
9418;SDS011;4748;50.802;7.132;2022-09-25T16:52:31;0.40;;;0.10;;
9418;SDS011;4748;50.802;7.132;2022-09-25T16:54:58;0.77;;;0.00;;
9418;SDS011;4748;50.802;7.132;2022-09-25T16:57:24;4.97;;;0.20;;
9418;SDS011;4748;50.802;7.132;2022-09-25T16:59:54;1.10;;;0.30;;
9418;SDS011;4748;50.802;7.132;2022-09-25T17:02:29;0.20;;;0.20;;
9418;SDS011;4748;50.802;7.132;2022-09-25T17:05:06;0.50;;;0.40;;
9418;SDS011;4748;50.802;7.132;2022-09-25T17:07:34;0.50;;;0.20;;
9418;SDS011;4748;50.802;7.132;2022-09-25T17:10:00;0.33;;;0.20;;
9418;SDS011;4748;50.802;7.132;2022-09-25T17:12:26;0.40;;;0.20;;
9418;SDS011;4748;50.802;7.132;2022-09-25T17:14:54;2.47;;;0.37;;
9418;SDS011;4748;50.802;7.132;2022-09-25T17:17:20;0.10;;;0.10;;
9418;SDS011;4748;50.802;7.132;2022-09-25T17:19:48;2.00;;;0.20;;
9418;SDS011;4748;50.802;7.132;2022-09-25T17:22:14;0.50;;;0.20;;
9418;SDS011;4748;50.802;7.132;2022-09-25T17:24:40;0.83;;;0.40;;
9418;SDS011;4748;50.802;7.132;2022-09-25T17:27:15;2.47;;;0.20;;
9418;SDS011;4748;50.802;7.132;2022-09-25T17:29:41;0.57;;;0.13;;
9418;SDS011;4748;50.802;7.132;2022-09-25T17:32:10;0.40;;;0.30;;
9418;SDS011;4748;50.802;7.132;2022-09-25T17:34:42;0.30;;;0.10;;
9418;SDS011;4748;50.802;7.132;2022-09-25T17:37:09;2.23;;;0.17;;
9418;SDS011;4748;50.802;7.132;2022-09-25T17:39:36;0.43;;;0.20;;
9418;SDS011;4748;50.802;7.132;2022-09-25T17:42:01;0.30;;;0.30;;
9418;SDS011;4748;50.802;7.132;2022-09-25T17:44:28;2.60;;;0.20;;
9418;SDS011;4748;50.802;7.132;2022-09-25T17:46:54;2.43;;;0.40;;
9418;SDS011;4748;50.802;7.132;2022-09-25T17:49:20;2.10;;;0.30;;
9418;SDS011;4748;50.802;7.132;2022-09-25T17:51:49;1.70;;;0.27;;
9418;SDS011;4748;50.802;7.132;2022-09-25T17:54:15;0.10;;;0.10;;
9418;SDS011;4748;50.802;7.132;2022-09-25T17:56:41;0.73;;;0.23;;
9418;SDS011;4748;50.802;7.132;2022-09-25T17:59:09;0.40;;;0.30;;
9418;SDS011;4748;50.802;7.132;2022-09-25T18:01:35;1.90;;;0.30;;
9418;SDS011;4748;50.802;7.132;2022-09-25T18:04:05;0.13;;;0.13;;
9418;SDS011;4748;50.802;7.132;2022-09-25T18:06:40;1.13;;;0.50;;
9418;SDS011;4748;50.802;7.132;2022-09-25T18:09:07;1.00;;;0.67;;
9418;SDS011;4748;50.802;7.132;2022-09-25T18:11:33;0.80;;;0.30;;
9418;SDS011;4748;50.802;7.132;2022-09-25T18:13:58;0.27;;;0.27;;
9418;SDS011;4748;50.802;7.132;2022-09-25T18:16:29;1.47;;;0.30;;
9418;SDS011;4748;50.802;7.132;2022-09-25T18:18:56;1.60;;;0.20;;
9418;SDS011;4748;50.802;7.132;2022-09-25T18:21:40;0.83;;;0.27;;
9418;SDS011;4748;50.802;7.132;2022-09-25T18:24:24;0.47;;;0.30;;
9418;SDS011;4748;50.802;7.132;2022-09-25T18:26:51;1.30;;;0.20;;
9418;SDS011;4748;50.802;7.132;2022-09-25T18:29:18;0.20;;;0.20;;
9418;SDS011;4748;50.802;7.132;2022-09-25T18:31:45;0.63;;;0.20;;
9418;SDS011;4748;50.802;7.132;2022-09-25T18:34:12;0.30;;;0.30;;
9418;SDS011;4748;50.802;7.132;2022-09-25T18:36:38;1.80;;;0.30;;
9418;SDS011;4748;50.802;7.132;2022-09-25T18:39:03;0.20;;;0.20;;
9418;SDS011;4748;50.802;7.132;2022-09-25T18:41:30;1.13;;;0.30;;
9418;SDS011;4748;50.802;7.132;2022-09-25T18:44:00;0.73;;;0.30;;
9418;SDS011;4748;50.802;7.132;2022-09-25T18:46:25;2.50;;;0.70;;
9418;SDS011;4748;50.802;7.132;2022-09-25T18:48:51;0.43;;;0.33;;
9418;SDS011;4748;50.802;7.132;2022-09-25T18:51:17;0.30;;;0.30;;
9418;SDS011;4748;50.802;7.132;2022-09-25T18:53:43;1.07;;;0.30;;
9418;SDS011;4748;50.802;7.132;2022-09-25T18:56:14;0.20;;;0.20;;
9418;SDS011;4748;50.802;7.132;2022-09-25T18:58:41;0.30;;;0.20;;
9418;SDS011;4748;50.802;7.132;2022-09-25T19:01:07;1.50;;;0.60;;
9418;SDS011;4748;50.802;7.132;2022-09-25T19:03:32;2.77;;;0.70;;
9418;SDS011;4748;50.802;7.132;2022-09-25T19:05:58;1.13;;;0.40;;
9418;SDS011;4748;50.802;7.132;2022-09-25T19:08:26;2.10;;;0.50;;
9418;SDS011;4748;50.802;7.132;2022-09-25T19:10:55;0.30;;;0.30;;
9418;SDS011;4748;50.802;7.132;2022-09-25T19:13:22;0.20;;;0.20;;
9418;SDS011;4748;50.802;7.132;2022-09-25T19:15:49;0.73;;;0.50;;
9418;SDS011;4748;50.802;7.132;2022-09-25T19:18:14;4.03;;;0.40;;
9418;SDS011;4748;50.802;7.132;2022-09-25T19:20:49;0.50;;;0.30;;
9418;SDS011;4748;50.802;7.132;2022-09-25T19:23:20;0.77;;;0.40;;
9418;SDS011;4748;50.802;7.132;2022-09-25T19:25:56;2.57;;;0.87;;
9418;SDS011;4748;50.802;7.132;2022-09-25T19:28:25;0.93;;;0.50;;
9418;SDS011;4748;50.802;7.132;2022-09-25T19:33:27;2.00;;;0.40;;
9418;SDS011;4748;50.802;7.132;2022-09-25T19:35:57;0.40;;;0.40;;
9418;SDS011;4748;50.802;7.132;2022-09-25T19:38:24;0.40;;;0.30;;
9418;SDS011;4748;50.802;7.132;2022-09-25T19:40:50;3.30;;;0.60;;
9418;SDS011;4748;50.802;7.132;2022-09-25T19:43:16;2.10;;;0.87;;
9418;SDS011;4748;50.802;7.132;2022-09-25T19:45:51;2.27;;;0.37;;
9418;SDS011;4748;50.802;7.132;2022-09-25T19:48:21;0.50;;;0.40;;
9418;SDS011;4748;50.802;7.132;2022-09-25T19:50:47;0.40;;;0.37;;
9418;SDS011;4748;50.802;7.132;2022-09-25T19:53:13;2.20;;;0.70;;
9418;SDS011;4748;50.802;7.132;2022-09-25T19:55:40;2.73;;;0.83;;
9418;SDS011;4748;50.802;7.132;2022-09-25T19:58:07;2.73;;;1.40;;
9418;SDS011;4748;50.802;7.132;2022-09-25T20:00:33;0.50;;;0.50;;
9418;SDS011;4748;50.802;7.132;2022-09-25T20:02:59;5.00;;;0.33;;
9418;SDS011;4748;50.802;7.132;2022-09-25T20:05:24;2.87;;;0.50;;
9418;SDS011;4748;50.802;7.132;2022-09-25T20:07:50;0.83;;;0.43;;
9418;SDS011;4748;50.802;7.132;2022-09-25T20:10:16;0.50;;;0.50;;
9418;SDS011;4748;50.802;7.132;2022-09-25T20:12:42;1.80;;;0.40;;
9418;SDS011;4748;50.802;7.132;2022-09-25T20:15:07;2.40;;;0.80;;
9418;SDS011;4748;50.802;7.132;2022-09-25T20:17:33;2.03;;;0.87;;
9418;SDS011;4748;50.802;7.132;2022-09-25T20:19:58;1.63;;;0.80;;
9418;SDS011;4748;50.802;7.132;2022-09-25T20:22:24;5.53;;;1.27;;
9418;SDS011;4748;50.802;7.132;2022-09-25T20:24:49;1.60;;;0.83;;
9418;SDS011;4748;50.802;7.132;2022-09-25T20:27:15;1.13;;;1.13;;
9418;SDS011;4748;50.802;7.132;2022-09-25T20:29:40;2.00;;;0.90;;
9418;SDS011;4748;50.802;7.132;2022-09-25T20:32:06;1.47;;;0.80;;
9418;SDS011;4748;50.802;7.132;2022-09-25T20:34:31;1.13;;;1.00;;
9418;SDS011;4748;50.802;7.132;2022-09-25T20:36:56;1.23;;;1.10;;
9418;SDS011;4748;50.802;7.132;2022-09-25T20:39:22;0.40;;;0.40;;
9418;SDS011;4748;50.802;7.132;2022-09-25T20:41:48;2.17;;;0.80;;
9418;SDS011;4748;50.802;7.132;2022-09-25T20:44:14;2.37;;;1.37;;
9418;SDS011;4748;50.802;7.132;2022-09-25T20:46:39;20.20;;;1.07;;
9418;SDS011;4748;50.802;7.132;2022-09-25T20:49:05;3.30;;;0.67;;
9418;SDS011;4748;50.802;7.132;2022-09-25T20:51:32;7.80;;;1.40;;
9418;SDS011;4748;50.802;7.132;2022-09-25T20:54:02;2.03;;;1.40;;
9418;SDS011;4748;50.802;7.132;2022-09-25T20:56:32;3.30;;;1.63;;
9418;SDS011;4748;50.802;7.132;2022-09-25T20:58:58;1.00;;;0.97;;
9418;SDS011;4748;50.802;7.132;2022-09-25T21:01:25;0.73;;;0.73;;
9418;SDS011;4748;50.802;7.132;2022-09-25T21:03:56;2.37;;;0.70;;
9418;SDS011;4748;50.802;7.132;2022-09-25T21:06:24;0.67;;;0.50;;
9418;SDS011;4748;50.802;7.132;2022-09-25T21:08:52;0.70;;;0.70;;
9418;SDS011;4748;50.802;7.132;2022-09-25T21:11:19;1.33;;;0.50;;